Time;durP1;ratioP1;P1;durP2;ratioP2;P2;SDS_P1;SDS_P2;PMS_P1;PMS_P2;Temp;Humidity;BMP_temperature;BMP_pressure;BME280_temperature;BME280_humidity;BME280_pressure;Samples;Min_cycle;Max_cycle;Signal;HPM_P1;HPM_P2
2023/01/01 00:01:07;;;;;;;;;;;19.50;48.80;;;;;;5008431;28;19921;-69
2023/01/01 00:03:34;;;;;;;;;;;19.50;48.70;;;;;;5006338;28;19923;-70
2023/01/01 00:06:06;;;;;;;;;;;19.50;48.70;;;;;;5008205;28;19921;-70
2023/01/01 00:08:33;;;;;;;;;;;19.50;48.70;;;;;;5009655;28;19921;-69
2023/01/01 00:11:00;;;;;;;;;;;19.40;48.70;;;;;;4992292;28;19971;-70
2023/01/01 00:13:27;;;;;;;;;;;19.40;48.60;;;;;;4991651;28;19953;-70
2023/01/01 00:15:54;;;;;;;;;;;19.40;48.70;;;;;;5007297;28;20034;-71
2023/01/01 00:18:21;;;;;;;;;;;19.40;48.60;;;;;;5008160;28;19944;-70
2023/01/01 00:20:47;;;;;;;;;;;19.50;48.70;;;;;;5004705;28;20327;-70
2023/01/01 00:23:16;;;;;;;;;;;19.40;48.60;;;;;;5003269;28;19992;-69
2023/01/01 00:25:43;;;;;;;;;;;19.40;48.60;;;;;;5007421;28;20257;-70
2023/01/01 00:28:10;;;;;;;;;;;19.40;48.70;;;;;;4990205;28;19926;-70
2023/01/01 00:30:39;;;;;;;;;;;19.40;48.60;;;;;;4989756;28;19973;-70
2023/01/01 00:33:05;;;;;;;;;;;19.40;48.60;;;;;;4988654;28;19926;-70
2023/01/01 00:35:33;;;;;;;;;;;19.40;48.60;;;;;;5023385;28;19945;-70
2023/01/01 00:38:00;;;;;;;;;;;19.40;48.70;;;;;;4989032;28;19921;-70
2023/01/01 00:40:28;;;;;;;;;;;19.40;48.70;;;;;;5005993;28;19925;-71
2023/01/01 00:42:55;;;;;;;;;;;19.40;48.70;;;;;;5008901;28;19925;-71
2023/01/01 00:45:21;;;;;;;;;;;19.40;48.70;;;;;;5007835;28;19928;-71
2023/01/01 00:47:48;;;;;;;;;;;19.40;48.70;;;;;;5008649;28;19921;-70
2023/01/01 00:50:15;;;;;;;;;;;19.50;48.70;;;;;;5014141;28;19922;-71
2023/01/01 00:52:42;;;;;;;;;;;19.50;48.70;;;;;;4994445;28;20322;-70
2023/01/01 00:55:09;;;;;;;;;;;19.50;48.70;;;;;;5011287;28;19925;-70
2023/01/01 00:57:37;;;;;;;;;;;19.40;48.60;;;;;;4995857;28;19992;-70
2023/01/01 01:00:05;;;;;;;;;;;19.40;48.60;;;;;;4999865;28;19926;-70
2023/01/01 01:02:31;;;;;;;;;;;19.40;48.60;;;;;;5027262;28;20000;-70
2023/01/01 01:05:00;;;;;;;;;;;19.40;48.60;;;;;;5011248;28;20044;-70
2023/01/01 01:07:26;;;;;;;;;;;19.50;48.70;;;;;;5001809;28;19932;-70
2023/01/01 01:09:53;;;;;;;;;;;19.40;48.60;;;;;;5016501;28;20007;-70
2023/01/01 01:12:20;;;;;;;;;;;19.40;48.70;;;;;;5024327;28;20443;-71
2023/01/01 01:14:48;;;;;;;;;;;19.40;48.60;;;;;;5003750;28;20269;-70
2023/01/01 01:17:15;;;;;;;;;;;19.50;48.70;;;;;;5011503;28;19987;-70
2023/01/01 01:19:41;;;;;;;;;;;19.40;48.60;;;;;;5011354;28;19921;-69
2023/01/01 01:22:08;;;;;;;;;;;19.40;48.60;;;;;;5001023;28;19922;-70
2023/01/01 01:24:35;;;;;;;;;;;19.40;48.60;;;;;;4996088;28;19926;-70
2023/01/01 01:27:02;;;;;;;;;;;19.40;48.60;;;;;;4991083;28;19922;-72
2023/01/01 01:29:29;;;;;;;;;;;19.50;48.70;;;;;;4998510;28;19926;-70
2023/01/01 01:31:57;;;;;;;;;;;19.40;48.70;;;;;;5012207;28;20057;-70
2023/01/01 01:34:24;;;;;;;;;;;19.40;48.60;;;;;;5012113;28;20383;-71
2023/01/01 01:36:51;;;;;;;;;;;19.50;48.70;;;;;;5010273;28;19922;-71
2023/01/01 01:39:18;;;;;;;;;;;19.40;48.60;;;;;;5011841;28;19996;-70
2023/01/01 01:41:45;;;;;;;;;;;19.40;48.60;;;;;;5009064;28;19925;-70
2023/01/01 01:44:27;;;;;;;;;;;19.40;48.60;;;;;;5007489;28;19922;-71
2023/01/01 01:46:53;;;;;;;;;;;19.40;48.60;;;;;;4990125;28;19922;-70
2023/01/01 01:49:30;;;;;;;;;;;19.50;48.70;;;;;;5015353;28;19925;-70
2023/01/01 01:51:57;;;;;;;;;;;19.40;48.60;;;;;;4997022;28;19957;-70
2023/01/01 01:54:24;;;;;;;;;;;19.40;48.60;;;;;;4996668;28;19926;-71
2023/01/01 01:56:52;;;;;;;;;;;19.40;48.60;;;;;;5010548;28;20295;-69
2023/01/01 01:59:18;;;;;;;;;;;19.50;48.70;;;;;;5010492;28;19973;-71
2023/01/01 02:01:45;;;;;;;;;;;19.40;48.60;;;;;;5010092;28;20352;-69
2023/01/01 02:04:12;;;;;;;;;;;19.40;48.60;;;;;;5007271;28;19926;-70
2023/01/01 02:06:40;;;;;;;;;;;19.40;48.60;;;;;;5010807;28;19984;-70
2023/01/01 02:09:07;;;;;;;;;;;19.40;48.60;;;;;;5010418;28;20241;-69
2023/01/01 02:11:34;;;;;;;;;;;19.40;48.60;;;;;;5010471;28;19969;-69
2023/01/01 02:14:01;;;;;;;;;;;19.40;48.60;;;;;;5009279;28;19983;-70
2023/01/01 02:16:29;;;;;;;;;;;19.40;48.60;;;;;;5010336;28;19933;-70
2023/01/01 02:18:57;;;;;;;;;;;19.40;48.60;;;;;;5010092;28;20314;-71
2023/01/01 02:21:27;;;;;;;;;;;19.50;48.70;;;;;;5010985;28;19929;-69
2023/01/01 02:24:12;;;;;;;;;;;19.50;48.70;;;;;;5012366;28;19922;-70
2023/01/01 02:26:45;;;;;;;;;;;19.50;48.60;;;;;;4991287;28;19974;-69
2023/01/01 02:29:24;;;;;;;;;;;19.40;48.60;;;;;;4992501;28;19929;-70
2023/01/01 02:31:52;;;;;;;;;;;19.50;48.60;;;;;;5010590;28;19944;-70
2023/01/01 02:34:19;;;;;;;;;;;19.40;48.60;;;;;;5009942;28;19928;-69
2023/01/01 02:36:48;;;;;;;;;;;19.50;48.60;;;;;;5011137;28;20418;-70
2023/01/01 02:39:15;;;;;;;;;;;19.40;48.60;;;;;;5009930;28;19925;-70
2023/01/01 02:41:43;;;;;;;;;;;19.40;48.60;;;;;;5011319;28;20564;-70
2023/01/01 02:44:10;;;;;;;;;;;19.40;48.60;;;;;;5010110;28;19921;-69
2023/01/01 02:46:38;;;;;;;;;;;19.40;48.60;;;;;;5009697;28;20387;-70
2023/01/01 02:49:05;;;;;;;;;;;19.40;48.60;;;;;;5017713;28;19921;-70
2023/01/01 02:51:34;;;;;;;;;;;19.40;48.60;;;;;;4991502;28;19921;-70
2023/01/01 02:54:02;;;;;;;;;;;19.40;48.60;;;;;;5006178;28;19922;-71
2023/01/01 02:56:32;;;;;;;;;;;19.50;48.60;;;;;;5022255;28;20406;-71
2023/01/01 03:01:46;;;;;;;;;;;19.40;48.60;;;;;;4989732;28;19921;-69
2023/01/01 03:04:15;;;;;;;;;;;19.40;48.60;;;;;;4990207;28;19922;-70
2023/01/01 03:06:43;;;;;;;;;;;19.40;48.60;;;;;;5009432;28;19949;-70
2023/01/01 03:09:12;;;;;;;;;;;19.40;48.60;;;;;;5009474;28;20241;-70
2023/01/01 03:11:43;;;;;;;;;;;19.40;48.60;;;;;;5009447;28;19925;-71
2023/01/01 03:14:12;;;;;;;;;;;19.40;48.60;;;;;;5008829;28;19936;-70
2023/01/01 03:16:39;;;;;;;;;;;19.40;48.60;;;;;;5010329;28;19941;-69
2023/01/01 03:19:11;;;;;;;;;;;19.40;48.60;;;;;;5008945;28;19976;-70
2023/01/01 03:21:39;;;;;;;;;;;19.40;48.60;;;;;;4991724;28;20490;-69
2023/01/01 03:24:06;;;;;;;;;;;19.40;48.60;;;;;;4989744;28;19949;-69
2023/01/01 03:26:34;;;;;;;;;;;19.40;48.60;;;;;;5008740;28;19921;-69
2023/01/01 03:29:00;;;;;;;;;;;19.50;48.60;;;;;;5010399;28;19976;-70
2023/01/01 03:31:27;;;;;;;;;;;19.50;48.60;;;;;;5008773;28;19922;-70
2023/01/01 03:33:56;;;;;;;;;;;19.40;48.60;;;;;;5008501;28;20351;-71
2023/01/01 03:36:25;;;;;;;;;;;19.40;48.60;;;;;;5008145;28;19925;-69
2023/01/01 03:38:52;;;;;;;;;;;19.40;48.60;;;;;;5005616;28;19926;-69
2023/01/01 03:41:21;;;;;;;;;;;19.40;48.60;;;;;;5004395;28;19980;-71
2023/01/01 03:43:51;;;;;;;;;;;19.40;48.60;;;;;;5008960;28;19925;-71
2023/01/01 03:46:19;;;;;;;;;;;19.40;48.60;;;;;;5008702;28;19926;-70
2023/01/01 03:48:59;;;;;;;;;;;19.50;48.60;;;;;;5018717;28;20003;-71
2023/01/01 03:51:31;;;;;;;;;;;19.50;48.60;;;;;;5009167;28;20012;-70
2023/01/01 03:53:58;;;;;;;;;;;19.40;48.60;;;;;;4988782;28;19976;-69
2023/01/01 03:56:28;;;;;;;;;;;19.40;48.60;;;;;;5005784;28;19921;-70
2023/01/01 03:58:56;;;;;;;;;;;19.40;48.60;;;;;;5008581;28;19921;-70
2023/01/01 04:01:24;;;;;;;;;;;19.40;48.60;;;;;;5009503;28;19921;-70
2023/01/01 04:03:50;;;;;;;;;;;19.40;48.60;;;;;;5008571;28;19976;-70
2023/01/01 04:06:17;;;;;;;;;;;19.40;48.60;;;;;;5007165;28;19945;-70
2023/01/01 04:08:45;;;;;;;;;;;19.40;48.60;;;;;;5008402;28;19953;-70
2023/01/01 04:13:54;;;;;;;;;;;19.40;48.60;;;;;;5007037;28;19922;-70
2023/01/01 04:16:21;;;;;;;;;;;19.40;48.60;;;;;;5007039;28;19976;-70
2023/01/01 04:18:47;;;;;;;;;;;19.50;48.60;;;;;;5008411;28;19921;-71
2023/01/01 04:21:14;;;;;;;;;;;19.40;48.60;;;;;;5008393;28;19976;-69
2023/01/01 04:23:41;;;;;;;;;;;19.40;48.60;;;;;;5008458;28;19929;-70
2023/01/01 04:26:13;;;;;;;;;;;19.40;48.60;;;;;;5011877;28;19926;-70
2023/01/01 04:28:40;;;;;;;;;;;19.40;48.60;;;;;;5008130;28;19929;-70
2023/01/01 04:31:07;;;;;;;;;;;19.40;48.60;;;;;;5002871;28;19921;-70
2023/01/01 04:33:33;;;;;;;;;;;19.40;48.60;;;;;;5012256;28;19960;-70
2023/01/01 04:36:02;;;;;;;;;;;19.50;48.60;;;;;;5011777;28;19992;-70
2023/01/01 04:38:29;;;;;;;;;;;19.50;48.60;;;;;;5012154;28;19930;-71
2023/01/01 04:40:59;;;;;;;;;;;19.40;48.60;;;;;;5009056;28;19980;-69
2023/01/01 04:43:27;;;;;;;;;;;19.40;48.60;;;;;;5002342;28;19953;-70
2023/01/01 04:45:57;;;;;;;;;;;19.50;48.60;;;;;;5011699;28;19957;-69
2023/01/01 04:48:24;;;;;;;;;;;19.40;48.50;;;;;;5018872;28;19957;-69
2023/01/01 04:50:55;;;;;;;;;;;19.40;48.50;;;;;;5025207;28;19968;-70
2023/01/01 04:53:21;;;;;;;;;;;19.40;48.60;;;;;;5011946;28;19987;-70
2023/01/01 04:55:48;;;;;;;;;;;19.40;48.60;;;;;;5011687;28;19926;-69
2023/01/01 04:58:15;;;;;;;;;;;19.50;48.60;;;;;;5011774;28;20367;-70
2023/01/01 05:00:43;;;;;;;;;;;19.40;48.60;;;;;;5010831;28;19921;-70
2023/01/01 05:03:10;;;;;;;;;;;19.40;48.60;;;;;;5011455;28;20295;-71
2023/01/01 05:05:36;;;;;;;;;;;19.40;48.60;;;;;;5012724;28;20438;-70
2023/01/01 05:08:03;;;;;;;;;;;19.40;48.60;;;;;;5011583;28;19957;-70
2023/01/01 05:10:30;;;;;;;;;;;19.40;48.50;;;;;;5011501;28;19925;-70
2023/01/01 05:12:57;;;;;;;;;;;19.40;48.50;;;;;;5010871;28;19925;-69
2023/01/01 05:15:23;;;;;;;;;;;19.50;48.60;;;;;;5009045;28;19968;-69
2023/01/01 05:17:53;;;;;;;;;;;19.40;48.50;;;;;;4993739;28;19929;-73
2023/01/01 05:20:20;;;;;;;;;;;19.40;48.60;;;;;;5011411;28;19925;-69
2023/01/01 05:22:47;;;;;;;;;;;19.40;48.60;;;;;;5010337;28;20367;-70
2023/01/01 05:25:14;;;;;;;;;;;19.50;48.60;;;;;;5010034;28;19952;-70
2023/01/01 05:27:41;;;;;;;;;;;19.40;48.60;;;;;;5011163;28;19968;-70
2023/01/01 05:30:08;;;;;;;;;;;19.40;48.60;;;;;;5009712;28;19957;-70
2023/01/01 05:32:36;;;;;;;;;;;19.40;48.50;;;;;;5008723;28;19921;-72
2023/01/01 05:35:04;;;;;;;;;;;19.50;48.60;;;;;;5009825;28;19921;-72
2023/01/01 05:37:31;;;;;;;;;;;19.40;48.60;;;;;;5010196;28;19925;-70
2023/01/01 05:39:58;;;;;;;;;;;19.40;48.60;;;;;;5009849;28;20398;-69
2023/01/01 05:42:24;;;;;;;;;;;19.40;48.60;;;;;;5009953;28;19965;-69
2023/01/01 05:44:51;;;;;;;;;;;19.40;48.60;;;;;;5009622;28;19925;-70
2023/01/01 05:47:20;;;;;;;;;;;19.50;48.60;;;;;;4993381;28;19923;-69
2023/01/01 05:49:47;;;;;;;;;;;19.40;48.60;;;;;;5007882;28;19957;-70
2023/01/01 05:52:15;;;;;;;;;;;19.50;48.60;;;;;;5005556;28;19972;-70
2023/01/01 05:54:41;;;;;;;;;;;19.40;48.60;;;;;;5009903;28;20360;-70
2023/01/01 05:57:08;;;;;;;;;;;19.40;48.50;;;;;;5011140;28;19929;-70
2023/01/01 05:59:35;;;;;;;;;;;19.40;48.50;;;;;;5009335;28;19933;-71
2023/01/01 06:02:02;;;;;;;;;;;19.50;48.60;;;;;;4999057;28;19929;-70
2023/01/01 06:04:28;;;;;;;;;;;19.50;48.60;;;;;;4989717;28;19928;-70
2023/01/01 06:06:55;;;;;;;;;;;19.40;48.60;;;;;;4998352;28;19929;-69
2023/01/01 06:09:23;;;;;;;;;;;19.50;48.60;;;;;;4991585;28;20169;-69
2023/01/01 06:11:50;;;;;;;;;;;19.50;48.60;;;;;;5001071;28;19976;-70
2023/01/01 06:14:17;;;;;;;;;;;19.40;48.60;;;;;;4944730;28;1874541;-70
2023/01/01 06:16:44;;;;;;;;;;;19.40;48.60;;;;;;5011238;28;19925;-70
2023/01/01 06:19:11;;;;;;;;;;;19.50;48.60;;;;;;5010104;28;19930;-70
2023/01/01 06:21:37;;;;;;;;;;;19.40;48.50;;;;;;5010336;28;19941;-69
2023/01/01 06:24:05;;;;;;;;;;;19.40;48.60;;;;;;4992835;28;19928;-69
2023/01/01 06:26:33;;;;;;;;;;;19.50;48.60;;;;;;4998366;28;20363;-69
2023/01/01 06:28:59;;;;;;;;;;;19.40;48.50;;;;;;5010856;28;19929;-69
2023/01/01 06:31:26;;;;;;;;;;;19.50;48.60;;;;;;5009708;28;19980;-70
2023/01/01 06:33:53;;;;;;;;;;;19.40;49.10;;;;;;4993514;28;20016;-70
2023/01/01 06:36:21;;;;;;;;;;;19.40;48.50;;;;;;5009979;28;19925;-70
2023/01/01 06:38:48;;;;;;;;;;;19.50;48.60;;;;;;5011542;28;19932;-70
2023/01/01 06:41:15;;;;;;;;;;;19.40;48.60;;;;;;4996628;28;19952;-70
2023/01/01 06:43:43;;;;;;;;;;;19.40;48.50;;;;;;5009848;28;19984;-70
2023/01/01 06:46:12;;;;;;;;;;;19.50;48.60;;;;;;5009242;28;20368;-72
2023/01/01 06:48:39;;;;;;;;;;;19.40;48.50;;;;;;5018179;28;19933;-71
2023/01/01 06:51:06;;;;;;;;;;;19.50;48.60;;;;;;5026072;28;19971;-70
2023/01/01 06:53:33;;;;;;;;;;;19.50;48.60;;;;;;5009535;28;19922;-70
2023/01/01 06:56:00;;;;;;;;;;;19.50;48.60;;;;;;5010036;28;19925;-69
2023/01/01 06:58:27;;;;;;;;;;;19.50;48.60;;;;;;5010443;28;19968;-70
2023/01/01 07:00:55;;;;;;;;;;;19.50;48.60;;;;;;5009021;28;19929;-70
2023/01/01 07:03:21;;;;;;;;;;;19.50;48.60;;;;;;5008259;28;19952;-70
2023/01/01 07:05:48;;;;;;;;;;;19.50;48.60;;;;;;5009426;28;19922;-70
2023/01/01 07:08:15;;;;;;;;;;;19.40;48.50;;;;;;4989798;28;19922;-71
2023/01/01 07:10:42;;;;;;;;;;;19.40;48.50;;;;;;4989799;28;19968;-69
2023/01/01 07:13:08;;;;;;;;;;;19.50;48.60;;;;;;5006981;28;19922;-69
2023/01/01 07:15:36;;;;;;;;;;;19.40;48.50;;;;;;5009054;28;19952;-69
2023/01/01 07:18:04;;;;;;;;;;;19.50;48.60;;;;;;5009141;28;20371;-70
2023/01/01 07:20:31;;;;;;;;;;;19.40;48.50;;;;;;5009184;28;19925;-70
2023/01/01 07:23:01;;;;;;;;;;;19.40;48.50;;;;;;5008770;28;20299;-70
2023/01/01 07:25:27;;;;;;;;;;;19.40;48.50;;;;;;5010414;28;19940;-71
2023/01/01 07:27:54;;;;;;;;;;;19.50;48.50;;;;;;5010331;28;19968;-70
2023/01/01 07:30:21;;;;;;;;;;;19.50;48.60;;;;;;4994085;28;19928;-70
2023/01/01 07:32:47;;;;;;;;;;;19.50;48.50;;;;;;5005244;28;19956;-70
2023/01/01 07:35:16;;;;;;;;;;;19.40;48.50;;;;;;5009990;28;19944;-70
2023/01/01 07:37:42;;;;;;;;;;;19.40;48.50;;;;;;5009285;28;19959;-69
2023/01/01 07:40:10;;;;;;;;;;;19.40;48.50;;;;;;5008797;28;19921;-70
2023/01/01 07:42:37;;;;;;;;;;;19.50;48.50;;;;;;5008524;28;19925;-69
2023/01/01 07:45:04;;;;;;;;;;;19.50;48.50;;;;;;5007739;28;19948;-70
2023/01/01 07:47:31;;;;;;;;;;;19.50;48.50;;;;;;5007739;28;20331;-69
2023/01/01 07:49:58;;;;;;;;;;;19.50;48.50;;;;;;5008662;28;19921;-70
2023/01/01 07:52:26;;;;;;;;;;;19.50;48.60;;;;;;5009906;28;19968;-69
2023/01/01 07:54:53;;;;;;;;;;;19.50;48.50;;;;;;5010110;28;19921;-70
2023/01/01 07:57:19;;;;;;;;;;;19.50;48.50;;;;;;5009913;28;19921;-70
2023/01/01 07:59:46;;;;;;;;;;;19.50;48.50;;;;;;5008341;28;19926;-69
2023/01/01 08:02:13;;;;;;;;;;;19.40;48.50;;;;;;5004432;28;19922;-70
2023/01/01 08:04:40;;;;;;;;;;;19.40;48.50;;;;;;4988992;28;19972;-70
2023/01/01 08:07:06;;;;;;;;;;;19.50;48.50;;;;;;5008653;28;20272;-70
2023/01/01 08:09:34;;;;;;;;;;;19.50;48.50;;;;;;5008629;28;20429;-69
2023/01/01 08:12:01;;;;;;;;;;;19.50;48.50;;;;;;5008339;28;19960;-68
2023/01/01 08:14:28;;;;;;;;;;;19.40;48.40;;;;;;5008004;28;20049;-69
2023/01/01 08:16:55;;;;;;;;;;;19.50;48.50;;;;;;5007841;28;19968;-68
2023/01/01 08:19:21;;;;;;;;;;;19.50;48.50;;;;;;4999968;28;19934;-69
2023/01/01 08:21:48;;;;;;;;;;;19.50;48.50;;;;;;5005757;28;19926;-70
2023/01/01 08:24:15;;;;;;;;;;;19.50;48.50;;;;;;4990014;28;19929;-69
2023/01/01 08:26:43;;;;;;;;;;;19.50;48.50;;;;;;4992948;28;19956;-69
2023/01/01 08:29:10;;;;;;;;;;;19.50;48.50;;;;;;5009799;28;19926;-69
2023/01/01 08:31:36;;;;;;;;;;;19.50;48.50;;;;;;5009348;28;20006;-69
2023/01/01 08:34:03;;;;;;;;;;;19.50;48.50;;;;;;5007931;28;19968;-70
2023/01/01 08:36:32;;;;;;;;;;;19.50;48.50;;;;;;4997079;28;19922;-70
2023/01/01 08:38:59;;;;;;;;;;;19.50;48.50;;;;;;5008585;28;19932;-69
2023/01/01 08:41:26;;;;;;;;;;;19.50;48.50;;;;;;5008248;28;19926;-71
2023/01/01 08:43:54;;;;;;;;;;;19.50;48.50;;;;;;4988656;28;19976;-69
2023/01/01 08:46:21;;;;;;;;;;;19.50;48.50;;;;;;5004328;28;19926;-70
2023/01/01 08:48:48;;;;;;;;;;;19.50;48.50;;;;;;5017680;28;19975;-70
2023/01/01 08:51:14;;;;;;;;;;;19.50;48.50;;;;;;5028927;28;19921;-69
2023/01/01 08:53:41;;;;;;;;;;;19.50;48.50;;;;;;5006413;28;19937;-69
2023/01/01 08:56:08;;;;;;;;;;;19.50;48.50;;;;;;4989241;28;19921;-70
2023/01/01 08:58:36;;;;;;;;;;;19.50;48.50;;;;;;4999378;28;19925;-69
2023/01/01 09:01:04;;;;;;;;;;;19.50;48.50;;;;;;4991718;28;19922;-68
2023/01/01 09:03:31;;;;;;;;;;;19.50;48.50;;;;;;5004391;28;19925;-69
2023/01/01 09:05:58;;;;;;;;;;;19.50;48.50;;;;;;5007583;28;19925;-69
2023/01/01 09:08:25;;;;;;;;;;;19.50;48.50;;;;;;5007694;28;19921;-68
2023/01/01 09:10:52;;;;;;;;;;;19.50;48.50;;;;;;5008198;28;19931;-69
2023/01/01 09:13:19;;;;;;;;;;;19.50;48.50;;;;;;5011388;28;19921;-70
2023/01/01 09:15:46;;;;;;;;;;;19.50;48.50;;;;;;5012675;28;19949;-69
2023/01/01 09:18:14;;;;;;;;;;;19.50;48.50;;;;;;5011338;28;19991;-69
2023/01/01 09:20:41;;;;;;;;;;;19.50;48.50;;;;;;5011488;28;19925;-69
2023/01/01 09:23:07;;;;;;;;;;;19.50;48.50;;;;;;5011268;28;19961;-69
2023/01/01 09:25:34;;;;;;;;;;;19.50;48.50;;;;;;5012245;28;19930;-68
2023/01/01 09:28:02;;;;;;;;;;;19.50;48.50;;;;;;4995053;28;19921;-69
2023/01/01 09:30:28;;;;;;;;;;;19.50;48.50;;;;;;5012295;28;20323;-68
2023/01/01 09:32:55;;;;;;;;;;;19.50;48.50;;;;;;5012327;28;19937;-69
2023/01/01 09:35:23;;;;;;;;;;;19.50;48.50;;;;;;5012799;28;19932;-68
2023/01/01 09:37:50;;;;;;;;;;;19.50;48.50;;;;;;5012436;28;19971;-68
2023/01/01 09:40:21;;;;;;;;;;;19.50;48.50;;;;;;5012426;28;20356;-70
2023/01/01 09:42:49;;;;;;;;;;;19.50;48.50;;;;;;5015801;28;19925;-68
2023/01/01 09:45:17;;;;;;;;;;;19.50;48.50;;;;;;5012398;28;19972;-68
2023/01/01 09:47:44;;;;;;;;;;;19.50;48.50;;;;;;5012135;28;19921;-68
2023/01/01 09:50:12;;;;;;;;;;;19.50;48.50;;;;;;5031925;28;19963;-68
2023/01/01 09:52:43;;;;;;;;;;;19.50;48.50;;;;;;5024758;28;20394;-68
2023/01/01 09:55:12;;;;;;;;;;;19.50;48.50;;;;;;5003799;28;19932;-69
2023/01/01 09:57:39;;;;;;;;;;;19.50;48.50;;;;;;4997691;28;19921;-68
2023/01/01 10:00:07;;;;;;;;;;;19.50;48.50;;;;;;5006872;28;19925;-68
2023/01/01 10:02:36;;;;;;;;;;;19.50;48.50;;;;;;5012431;28;19929;-70
2023/01/01 10:05:05;;;;;;;;;;;19.50;48.50;;;;;;5013339;28;19971;-69
2023/01/01 10:07:34;;;;;;;;;;;19.50;48.50;;;;;;5013571;28;19987;-69
2023/01/01 10:10:04;;;;;;;;;;;19.50;48.50;;;;;;5011875;28;19921;-68
2023/01/01 10:12:33;;;;;;;;;;;19.50;48.50;;;;;;5011858;28;19925;-69
2023/01/01 10:15:02;;;;;;;;;;;19.50;48.50;;;;;;5013211;28;19988;-70
2023/01/01 10:17:30;;;;;;;;;;;19.50;48.50;;;;;;5011306;28;19922;-69
2023/01/01 10:19:57;;;;;;;;;;;19.50;48.50;;;;;;5011747;28;20312;-69
2023/01/01 10:22:25;;;;;;;;;;;19.50;48.50;;;;;;5010355;28;20434;-70
2023/01/01 10:24:52;;;;;;;;;;;19.50;48.50;;;;;;5011663;28;20058;-71
2023/01/01 10:27:25;;;;;;;;;;;19.50;48.50;;;;;;5011773;28;19928;-69
2023/01/01 10:29:52;;;;;;;;;;;19.50;48.50;;;;;;5013030;28;19944;-69
2023/01/01 10:32:20;;;;;;;;;;;19.50;48.50;;;;;;5011529;28;19931;-69
2023/01/01 10:34:46;;;;;;;;;;;19.50;48.50;;;;;;5003494;28;19932;-70
2023/01/01 10:37:13;;;;;;;;;;;19.50;48.50;;;;;;5008703;28;19925;-69
2023/01/01 10:39:40;;;;;;;;;;;19.50;48.50;;;;;;4991788;28;20016;-69
2023/01/01 10:42:07;;;;;;;;;;;19.50;48.50;;;;;;4992250;28;19972;-70
2023/01/01 10:44:35;;;;;;;;;;;19.50;48.50;;;;;;5010512;28;19933;-70
2023/01/01 10:47:04;;;;;;;;;;;19.50;48.50;;;;;;5011373;28;20352;-70
2023/01/01 10:49:31;;;;;;;;;;;19.50;48.50;;;;;;5028714;28;19929;-71
2023/01/01 10:51:58;;;;;;;;;;;19.50;48.50;;;;;;5015339;28;19968;-71
2023/01/01 10:54:29;;;;;;;;;;;19.50;48.50;;;;;;5008133;28;19932;-71
2023/01/01 10:56:56;;;;;;;;;;;19.50;48.50;;;;;;5011276;28;19967;-69
2023/01/01 10:59:32;;;;;;;;;;;19.50;48.50;;;;;;5010596;28;19921;-70
2023/01/01 11:02:12;;;;;;;;;;;19.50;48.50;;;;;;5010739;28;19921;-69
2023/01/01 11:04:39;;;;;;;;;;;19.50;48.50;;;;;;5009928;28;19972;-69
2023/01/01 11:07:06;;;;;;;;;;;19.50;48.50;;;;;;5011128;28;19995;-70
2023/01/01 11:09:35;;;;;;;;;;;19.50;48.50;;;;;;5004022;28;20260;-69
2023/01/01 11:12:03;;;;;;;;;;;19.50;48.50;;;;;;5006593;28;19928;-69
2023/01/01 11:14:30;;;;;;;;;;;19.50;48.50;;;;;;5008462;28;19921;-71
2023/01/01 11:16:56;;;;;;;;;;;19.50;48.50;;;;;;5010626;28;20000;-71
2023/01/01 11:19:27;;;;;;;;;;;19.50;48.50;;;;;;5010419;28;19925;-68
2023/01/01 11:21:54;;;;;;;;;;;19.50;48.50;;;;;;5011986;28;19967;-68
2023/01/01 11:24:21;;;;;;;;;;;19.50;48.40;;;;;;5011391;28;19921;-72
2023/01/01 11:26:48;;;;;;;;;;;19.50;48.40;;;;;;5009794;28;19922;-70
2023/01/01 11:29:21;;;;;;;;;;;19.50;48.40;;;;;;5010695;28;19925;-67
2023/01/01 11:31:48;;;;;;;;;;;19.50;48.50;;;;;;5010344;28;19976;-67
2023/01/01 11:34:20;;;;;;;;;;;19.50;48.40;;;;;;5010247;28;19929;-68
2023/01/01 11:36:48;;;;;;;;;;;19.50;48.50;;;;;;5010561;28;19949;-68
2023/01/01 11:39:19;;;;;;;;;;;19.50;48.40;;;;;;5010253;28;20000;-68
2023/01/01 11:41:46;;;;;;;;;;;19.50;48.40;;;;;;5010652;28;20137;-68
2023/01/01 11:44:13;;;;;;;;;;;19.50;48.40;;;;;;5009525;28;19922;-69
2023/01/01 11:46:40;;;;;;;;;;;19.50;48.40;;;;;;5010106;28;19921;-68
2023/01/01 11:49:12;;;;;;;;;;;19.50;48.40;;;;;;5010841;28;19980;-69
2023/01/01 11:51:39;;;;;;;;;;;19.60;48.50;;;;;;5009745;28;19925;-69
2023/01/01 11:54:11;;;;;;;;;;;19.50;48.40;;;;;;5010104;28;19988;-68
2023/01/01 11:56:38;;;;;;;;;;;19.50;48.40;;;;;;5010202;28;19932;-69
2023/01/01 11:59:05;;;;;;;;;;;19.60;48.50;;;;;;4999346;28;19988;-71
2023/01/01 12:01:32;;;;;;;;;;;19.50;48.60;;;;;;4990244;28;19921;-69
2023/01/01 12:03:59;;;;;;;;;;;19.60;48.50;;;;;;4999982;28;19925;-71
2023/01/01 12:06:27;;;;;;;;;;;19.50;48.40;;;;;;5010144;28;19929;-69
2023/01/01 12:08:55;;;;;;;;;;;19.50;48.30;;;;;;5011471;28;19961;-68
2023/01/01 12:11:23;;;;;;;;;;;19.60;48.40;;;;;;5009908;28;19960;-69
2023/01/01 12:13:51;;;;;;;;;;;19.50;48.40;;;;;;5009988;28;19980;-69
2023/01/01 12:16:19;;;;;;;;;;;19.50;48.40;;;;;;5005782;28;19922;-69
2023/01/01 12:18:47;;;;;;;;;;;19.50;48.40;;;;;;4998197;28;19929;-69
2023/01/01 12:21:15;;;;;;;;;;;19.50;48.30;;;;;;5009392;28;19922;-70
2023/01/01 12:23:42;;;;;;;;;;;19.50;48.40;;;;;;5009919;28;20352;-70
2023/01/01 12:26:11;;;;;;;;;;;19.50;48.30;;;;;;5009886;28;19945;-69
2023/01/01 12:28:40;;;;;;;;;;;19.60;48.50;;;;;;5006332;28;19976;-69
2023/01/01 12:31:08;;;;;;;;;;;19.50;48.40;;;;;;5006031;28;19972;-68
2023/01/01 12:33:44;;;;;;;;;;;19.60;48.50;;;;;;5000210;28;19932;-68
2023/01/01 12:36:22;;;;;;;;;;;19.60;48.40;;;;;;5010857;28;19985;-69
2023/01/01 12:39:00;;;;;;;;;;;19.50;48.30;;;;;;5009571;28;19921;-68
2023/01/01 12:41:28;;;;;;;;;;;19.50;48.30;;;;;;5009310;28;19980;-68
2023/01/01 12:43:58;;;;;;;;;;;19.50;48.30;;;;;;5009746;28;19921;-69
2023/01/01 12:46:38;;;;;;;;;;;19.50;48.30;;;;;;5011418;28;19929;-69
2023/01/01 12:49:19;;;;;;;;;;;19.60;48.40;;;;;;5017993;28;19971;-70
2023/01/01 12:51:48;;;;;;;;;;;19.60;48.40;;;;;;4992556;28;19933;-71
2023/01/01 12:54:34;;;;;;;;;;;19.60;48.40;;;;;;5003072;28;19928;-67
2023/01/01 12:57:02;;;;;;;;;;;19.60;48.40;;;;;;5014700;28;19967;-67
2023/01/01 12:59:30;;;;;;;;;;;19.60;48.40;;;;;;5012986;28;19971;-70
2023/01/01 13:01:59;;;;;;;;;;;19.60;48.40;;;;;;5013373;28;20048;-69
2023/01/01 13:04:26;;;;;;;;;;;19.60;48.40;;;;;;5014052;28;19922;-69
2023/01/01 13:06:55;;;;;;;;;;;19.60;48.40;;;;;;5008767;28;19976;-70
2023/01/01 13:09:22;;;;;;;;;;;19.60;49.00;;;;;;5012373;28;19969;-69
2023/01/01 13:11:50;;;;;;;;;;;19.60;48.40;;;;;;5012098;28;20004;-69
2023/01/01 13:14:17;;;;;;;;;;;19.60;48.40;;;;;;5012699;28;19975;-68
2023/01/01 13:16:45;;;;;;;;;;;19.60;48.40;;;;;;5012891;28;20062;-68
2023/01/01 13:19:23;;;;;;;;;;;19.60;48.40;;;;;;5012903;28;19944;-68
2023/01/01 13:21:50;;;;;;;;;;;19.60;48.40;;;;;;5012874;28;19929;-69
2023/01/01 13:24:20;;;;;;;;;;;19.60;48.40;;;;;;5011329;28;20382;-68
2023/01/01 13:26:47;;;;;;;;;;;19.60;48.40;;;;;;5012773;28;19925;-68
2023/01/01 13:29:42;;;;;;;;;;;19.60;48.40;;;;;;5012750;28;19948;-69
2023/01/01 13:32:10;;;;;;;;;;;19.60;48.40;;;;;;5012117;28;20022;-68
2023/01/01 13:34:52;;;;;;;;;;;19.60;48.40;;;;;;5009328;28;19926;-70
2023/01/01 13:37:26;;;;;;;;;;;19.60;48.40;;;;;;4989744;28;19992;-69
2023/01/01 13:39:53;;;;;;;;;;;19.60;48.40;;;;;;5008894;28;19921;-69
2023/01/01 13:42:38;;;;;;;;;;;19.60;48.40;;;;;;5012326;28;19932;-68
2023/01/01 13:45:06;;;;;;;;;;;19.60;48.40;;;;;;5013228;28;19922;-69
2023/01/01 13:47:36;;;;;;;;;;;19.60;48.40;;;;;;5012590;28;19979;-69
2023/01/01 13:50:04;;;;;;;;;;;19.60;48.40;;;;;;5019152;28;19956;-69
2023/01/01 13:52:39;;;;;;;;;;;19.60;48.40;;;;;;5011229;28;20434;-69
2023/01/01 13:55:15;;;;;;;;;;;19.60;48.40;;;;;;5011840;28;20020;-68
2023/01/01 13:57:51;;;;;;;;;;;19.60;48.40;;;;;;5012076;28;19921;-67
2023/01/01 14:00:20;;;;;;;;;;;19.60;48.40;;;;;;5013070;28;19922;-70
2023/01/01 14:02:48;;;;;;;;;;;19.60;48.40;;;;;;5012301;28;19965;-69
2023/01/01 14:05:15;;;;;;;;;;;19.60;48.40;;;;;;5012188;28;19929;-68
2023/01/01 14:07:43;;;;;;;;;;;19.60;48.40;;;;;;5012241;28;19984;-68
2023/01/01 14:10:16;;;;;;;;;;;19.60;49.00;;;;;;5011982;28;19921;-68
2023/01/01 14:12:43;;;;;;;;;;;19.60;48.40;;;;;;5002274;28;19922;-68
2023/01/01 14:15:14;;;;;;;;;;;19.60;48.40;;;;;;5004283;28;19921;-68
2023/01/01 14:17:41;;;;;;;;;;;19.60;48.40;;;;;;5011668;28;19968;-68
2023/01/01 14:20:13;;;;;;;;;;;19.60;48.40;;;;;;5011664;28;19925;-69
2023/01/01 14:22:40;;;;;;;;;;;19.60;48.40;;;;;;5011777;28;19925;-68
2023/01/01 14:25:11;;;;;;;;;;;19.60;48.50;;;;;;5011497;28;19921;-70
2023/01/01 14:27:38;;;;;;;;;;;19.60;48.50;;;;;;5010578;28;19925;-69